createdAt,value
2018-12-19T00:00:07.989Z,85.86
2018-12-19T00:02:36.351Z,83.80
2018-12-19T00:05:04.953Z,84.43
2018-12-19T00:07:33.325Z,84.15
2018-12-19T00:10:01.784Z,84.78
2018-12-19T00:12:30.278Z,83.89
2018-12-19T00:14:58.736Z,84.04
2018-12-19T00:17:27.249Z,84.29
2018-12-19T00:19:55.712Z,84.23
2018-12-19T00:22:24.205Z,83.80
2018-12-19T00:24:52.458Z,83.10
2018-12-19T00:27:20.737Z,83.62
2018-12-19T00:29:49.241Z,82.30
2018-12-19T00:32:17.633Z,81.57
2018-12-19T00:34:46.074Z,81.88
2018-12-19T00:37:14.344Z,80.94
2018-12-19T00:39:43.044Z,79.86
2018-12-19T00:42:11.299Z,80.56
2018-12-19T00:44:40.034Z,80.34
2018-12-19T00:47:08.490Z,80.27
2018-12-19T00:49:36.993Z,80.22
2018-12-19T00:52:05.653Z,81.00
2018-12-19T00:54:33.948Z,81.40
2018-12-19T00:57:02.424Z,80.85
2018-12-19T00:59:30.724Z,80.12
2018-12-19T01:01:59.089Z,80.63
2018-12-19T01:04:27.376Z,80.02
2018-12-19T01:06:56.049Z,79.97
2018-12-19T01:09:24.459Z,79.98
2018-12-19T01:11:52.806Z,79.09
2018-12-19T01:14:21.297Z,80.06
2018-12-19T01:16:50.856Z,79.08
2018-12-19T01:19:19.201Z,77.92
2018-12-19T01:21:47.744Z,78.26
2018-12-19T01:24:16.246Z,78.24
2018-12-19T01:26:44.501Z,78.16
2018-12-19T01:29:13.201Z,77.53
2018-12-19T01:31:41.677Z,77.19
2018-12-19T01:34:09.957Z,76.80
2018-12-19T01:36:38.638Z,76.04
2018-12-19T01:39:08.188Z,76.09
2018-12-19T01:41:36.629Z,76.04
2018-12-19T01:44:04.992Z,76.16
2018-12-19T01:46:33.275Z,75.14
2018-12-19T01:49:01.556Z,74.85
2018-12-19T01:51:30.169Z,75.67
2018-12-19T01:53:58.521Z,74.41
2018-12-19T01:56:26.805Z,75.21
2018-12-19T01:58:55.472Z,74.84
2018-12-19T02:01:23.757Z,74.57
2018-12-19T02:03:52.454Z,75.57
2018-12-19T02:06:20.733Z,74.79
2018-12-19T02:08:49.421Z,75.50
2018-12-19T02:11:17.697Z,74.89
2018-12-19T02:13:46.385Z,74.83
2018-12-19T02:16:14.661Z,74.61
2018-12-19T02:18:43.332Z,75.26
2018-12-19T02:21:11.639Z,74.71
2018-12-19T02:23:40.297Z,75.29
2018-12-19T02:26:09.323Z,75.03
2018-12-19T02:28:37.585Z,74.59
2018-12-19T02:31:06.204Z,74.15
2018-12-19T02:33:34.469Z,75.39
2018-12-19T02:36:02.741Z,75.21
2018-12-19T02:38:31.001Z,74.84
2018-12-19T02:40:59.259Z,75.44
2018-12-19T02:43:27.555Z,74.09
2018-12-19T02:45:55.810Z,74.18
2018-12-19T02:48:24.120Z,74.84
2018-12-19T02:50:52.385Z,74.44
2018-12-19T02:53:21.101Z,75.13
2018-12-19T02:55:49.550Z,74.79
2018-12-19T02:58:17.831Z,75.30
2018-12-19T03:00:46.502Z,75.37
2018-12-19T03:03:15.017Z,75.38
2018-12-19T03:05:43.273Z,75.76
2018-12-19T03:08:11.561Z,75.14
2018-12-19T03:10:39.929Z,75.56
2018-12-19T03:13:08.437Z,75.49
2018-12-19T03:15:36.710Z,74.84
2018-12-19T03:18:05.410Z,75.70
2018-12-19T03:20:33.849Z,75.74
2018-12-19T03:23:02.340Z,76.29
2018-12-19T03:25:31.856Z,76.07
2018-12-19T03:28:00.137Z,76.27
2018-12-19T03:30:28.398Z,77.52
2018-12-19T03:32:56.670Z,77.28
2018-12-19T03:35:24.941Z,76.30
2018-12-19T03:37:53.253Z,77.31
2018-12-19T03:40:21.701Z,77.06
2018-12-19T03:42:50.205Z,78.01
2018-12-19T03:45:18.669Z,77.31
2018-12-19T03:47:46.938Z,77.71
2018-12-19T03:50:16.242Z,77.98
2018-12-19T03:52:44.515Z,78.27
2018-12-19T03:55:13.114Z,78.06
2018-12-19T03:57:41.497Z,78.52
2018-12-19T04:00:10.189Z,77.73
2018-12-19T04:02:38.569Z,78.32
2018-12-19T04:05:07.030Z,78.28
2018-12-19T04:07:35.530Z,80.38
2018-12-19T04:10:05.029Z,80.92
2018-12-19T04:12:33.286Z,82.75
2018-12-19T04:15:01.564Z,83.18
2018-12-19T04:17:29.848Z,85.35
2018-12-19T04:19:58.142Z,85.91
2018-12-19T04:22:26.389Z,88.22
2018-12-19T04:24:54.926Z,87.67
2018-12-19T04:27:23.370Z,89.78
2018-12-19T04:29:52.473Z,89.30
2018-12-19T04:32:21.034Z,90.48
2018-12-19T04:34:49.306Z,89.82
2018-12-19T04:37:17.846Z,90.63
2018-12-19T04:39:46.301Z,90.83
2018-12-19T04:42:14.570Z,90.71
2018-12-19T04:44:42.849Z,91.02
2018-12-19T04:47:11.233Z,90.72
2018-12-19T04:49:39.746Z,91.21
2018-12-19T04:52:08.177Z,89.57
2018-12-19T04:54:36.686Z,89.50
2018-12-19T04:57:04.954Z,89.95
2018-12-19T04:59:33.340Z,89.90
2018-12-19T05:02:02.114Z,89.67
2018-12-19T05:04:30.632Z,90.52
2018-12-19T05:06:59.072Z,90.10
2018-12-19T05:09:27.587Z,90.09
2018-12-19T05:11:56.651Z,90.51
2018-12-19T05:14:25.672Z,90.10
2018-12-19T05:16:54.008Z,90.11
2018-12-19T05:19:22.285Z,90.91
2018-12-19T05:21:50.557Z,90.91
2018-12-19T05:24:18.866Z,91.51
2018-12-19T05:26:47.121Z,91.63
2018-12-19T05:29:15.390Z,91.63
2018-12-19T05:31:43.914Z,92.12
2018-12-19T05:34:12.197Z,92.49
2018-12-19T05:36:40.476Z,93.48
2018-12-19T05:39:08.830Z,93.13
2018-12-19T05:41:37.334Z,93.18
2018-12-19T05:44:05.792Z,93.55
2018-12-19T05:46:34.078Z,94.33
2018-12-19T05:49:02.342Z,94.05
2018-12-19T05:51:30.744Z,93.81
2018-12-19T05:53:59.202Z,94.92
2018-12-19T05:56:27.482Z,94.67
2018-12-19T05:58:56.065Z,93.68
2018-12-19T06:01:24.357Z,94.41
2018-12-19T06:03:53.110Z,94.71
2018-12-19T06:06:21.637Z,94.59
2018-12-19T06:08:49.889Z,94.07
2018-12-19T06:11:18.189Z,94.55
2018-12-19T06:13:47.073Z,94.10
2018-12-19T06:16:15.565Z,94.37
2018-12-19T06:18:43.838Z,94.77
2018-12-19T06:21:12.148Z,94.44
2018-12-19T06:23:40.474Z,95.03
2018-12-19T06:26:08.978Z,95.23
2018-12-19T06:28:37.433Z,95.52
2018-12-19T06:31:05.705Z,95.07
2018-12-19T06:33:35.506Z,95.24
2018-12-19T06:36:04.401Z,95.49
2018-12-19T06:38:33.929Z,95.49
2018-12-19T06:41:02.554Z,96.02
2018-12-19T06:43:30.888Z,95.87
2018-12-19T06:45:59.382Z,95.30
2018-12-19T06:48:27.850Z,95.78
2018-12-19T06:50:56.349Z,95.47
2018-12-19T06:53:24.815Z,96.11
2018-12-19T06:55:53.093Z,96.18
2018-12-19T06:58:21.758Z,95.96
2018-12-19T07:00:50.259Z,96.12
2018-12-19T07:03:18.795Z,96.92
2018-12-19T07:05:47.236Z,96.50
2018-12-19T07:08:15.506Z,96.89
2018-12-19T07:10:43.770Z,97.61
2018-12-19T07:13:12.061Z,97.97
2018-12-19T07:15:40.453Z,97.55
2018-12-19T07:18:09.148Z,98.48
2018-12-19T07:20:37.600Z,97.99
2018-12-19T07:23:06.104Z,98.84
2018-12-19T07:25:34.569Z,99.73
2018-12-19T07:28:03.083Z,98.96
2018-12-19T07:30:31.549Z,98.94
2018-12-19T07:33:00.042Z,99.07
2018-12-19T07:35:29.485Z,99.09
2018-12-19T07:37:57.768Z,100.00
2018-12-19T07:40:26.025Z,99.09
2018-12-19T07:42:54.465Z,99.78
2018-12-19T07:45:22.931Z,99.38
2018-12-19T07:47:51.217Z,99.14
2018-12-19T07:50:19.818Z,99.27
2018-12-19T07:52:49.002Z,98.30
2018-12-19T07:55:17.374Z,98.27
2018-12-19T07:57:45.641Z,98.00
2018-12-19T08:00:14.282Z,98.53
2018-12-19T08:02:42.854Z,98.29
2018-12-19T08:05:11.305Z,98.64
2018-12-19T08:07:39.809Z,98.35
2018-12-19T08:10:08.908Z,98.25
2018-12-19T08:12:37.182Z,98.63
2018-12-19T08:15:05.666Z,99.27
2018-12-19T08:17:34.034Z,98.88
2018-12-19T08:20:02.320Z,98.62
2018-12-19T08:22:30.593Z,98.69
2018-12-19T08:24:58.882Z,98.33
2018-12-19T08:27:27.161Z,97.95
2018-12-19T08:29:55.421Z,98.40
2018-12-19T08:32:23.705Z,98.41
2018-12-19T08:34:51.965Z,98.35
2018-12-19T08:37:20.225Z,97.98
2018-12-19T08:39:48.478Z,98.34
2018-12-19T08:42:16.781Z,98.54
2018-12-19T08:44:45.055Z,97.64
2018-12-19T08:47:13.357Z,97.92
2018-12-19T08:49:41.933Z,97.79
2018-12-19T08:52:10.445Z,97.98
2018-12-19T08:54:38.721Z,97.63
2018-12-19T08:57:07.402Z,97.33
2018-12-19T08:59:35.847Z,97.25
2018-12-19T09:02:04.117Z,97.48
2018-12-19T09:04:32.838Z,97.63
2018-12-19T09:07:01.303Z,97.33
2018-12-19T09:09:29.565Z,96.72
2018-12-19T09:11:58.385Z,96.13
2018-12-19T09:14:26.766Z,96.53
2018-12-19T09:16:55.219Z,96.11
2018-12-19T09:19:23.790Z,95.57
2018-12-19T09:21:52.188Z,95.23
2018-12-19T09:24:20.601Z,95.38
2018-12-19T09:26:49.157Z,95.35
2018-12-19T09:29:17.649Z,95.03
2018-12-19T09:31:47.749Z,95.14
2018-12-19T09:34:16.278Z,95.17
2018-12-19T09:36:44.554Z,95.70
2018-12-19T09:39:12.833Z,96.14
2018-12-19T09:41:41.205Z,96.19
2018-12-19T09:44:09.486Z,96.81
2018-12-19T09:46:37.749Z,96.51
2018-12-19T09:49:12.246Z,96.76
2018-12-19T09:51:36.532Z,96.67
2018-12-19T09:54:04.901Z,95.75
2018-12-19T09:56:33.500Z,95.53
2018-12-19T09:59:01.764Z,95.33
2018-12-19T10:01:30.057Z,93.92
2018-12-19T10:03:58.851Z,93.63
2018-12-19T10:06:27.473Z,92.86
2018-12-19T10:08:55.931Z,92.66
2018-12-19T10:11:24.205Z,93.51
2018-12-19T10:13:52.477Z,92.38
2018-12-19T10:16:20.873Z,91.46
2018-12-19T10:18:49.144Z,90.45
2018-12-19T10:21:18.425Z,90.01
2018-12-19T10:23:46.686Z,89.45
2018-12-19T10:26:14.982Z,89.39
2018-12-19T10:28:43.249Z,89.44
2018-12-19T10:31:11.749Z,89.93
2018-12-19T10:33:40.013Z,89.69
2018-12-19T10:36:08.298Z,90.06
2018-12-19T10:38:36.565Z,89.83
2018-12-19T10:41:05.329Z,89.25
2018-12-19T10:43:33.588Z,89.77
2018-12-19T10:46:01.862Z,90.58
2018-12-19T10:48:30.121Z,89.89
2018-12-19T10:50:58.406Z,90.05
2018-12-19T10:53:27.036Z,88.93
2018-12-19T10:55:55.539Z,87.91
2018-12-19T10:58:23.797Z,87.90
2018-12-19T11:00:57.629Z,86.86
2018-12-19T11:03:25.887Z,86.65
2018-12-19T11:05:54.597Z,85.55
2018-12-19T11:08:23.311Z,84.47
2018-12-19T11:10:52.137Z,84.52
2018-12-19T11:13:20.417Z,82.97
2018-12-19T11:15:49.025Z,82.30
2018-12-19T11:18:17.502Z,82.08
2018-12-19T11:20:45.916Z,83.32
2018-12-19T11:23:15.476Z,84.66
2018-12-19T11:25:43.977Z,83.89
2018-12-19T11:28:12.451Z,83.87
2018-12-19T11:30:40.953Z,82.85
2018-12-19T11:33:09.407Z,83.22
2018-12-19T11:35:37.896Z,81.65
2018-12-19T11:38:06.148Z,81.69
2018-12-19T11:40:34.421Z,81.60
2018-12-19T11:43:03.386Z,82.57
2018-12-19T11:45:31.817Z,82.03
2018-12-19T11:48:00.437Z,83.34
2018-12-19T11:50:28.705Z,82.74
2018-12-19T11:52:57.276Z,82.46
2018-12-19T11:55:25.760Z,82.30
2018-12-19T11:57:54.057Z,81.42
2018-12-19T12:00:22.709Z,81.33
2018-12-19T12:02:51.729Z,81.15
2018-12-19T12:05:19.988Z,81.04
2018-12-19T12:07:48.253Z,81.35
2018-12-19T12:10:16.613Z,82.07
2018-12-19T12:12:44.886Z,81.05
2018-12-19T12:15:13.129Z,82.26
2018-12-19T12:17:41.399Z,82.26
2018-12-19T12:20:09.788Z,84.32
2018-12-19T12:22:38.073Z,83.68
2018-12-19T12:25:06.485Z,84.71
2018-12-19T12:27:34.998Z,85.04
2018-12-19T12:30:03.490Z,86.13
2018-12-19T12:32:31.973Z,85.55
2018-12-19T12:35:01.581Z,85.15
2018-12-19T12:37:29.861Z,84.98
2018-12-19T12:39:58.133Z,85.34
2018-12-19T12:42:26.430Z,85.50
2018-12-19T12:44:54.993Z,86.92
2018-12-19T12:47:23.375Z,86.69
2018-12-19T12:49:51.821Z,86.40
2018-12-19T12:52:20.346Z,87.14
2018-12-19T12:54:48.720Z,86.22
2018-12-19T12:57:17.013Z,87.23
2018-12-19T12:59:45.452Z,86.82
2018-12-19T13:02:14.242Z,85.97
2018-12-19T13:04:42.925Z,84.80
2018-12-19T13:07:11.211Z,82.42
2018-12-19T13:09:39.701Z,81.30
2018-12-19T13:12:08.065Z,82.26
2018-12-19T13:14:36.671Z,81.77
2018-12-19T13:17:05.132Z,80.92
2018-12-19T13:19:33.626Z,82.34
2018-12-19T13:22:01.905Z,82.97
2018-12-19T13:24:30.189Z,85.71
2018-12-19T13:26:58.546Z,86.00
2018-12-19T13:29:27.046Z,85.38
2018-12-19T13:31:55.617Z,85.29
2018-12-19T13:34:23.932Z,86.55
2018-12-19T13:36:52.462Z,86.75
2018-12-19T13:39:20.757Z,87.42
2018-12-19T13:41:49.036Z,87.25
2018-12-19T13:44:17.421Z,86.97
2018-12-19T13:46:45.893Z,86.39
2018-12-19T13:49:14.422Z,86.30
2018-12-19T13:51:42.707Z,86.41
2018-12-19T13:54:11.061Z,86.28
2018-12-19T13:56:39.941Z,87.71
2018-12-19T13:59:08.956Z,87.42
2018-12-19T14:01:37.245Z,87.47
2018-12-19T14:04:06.513Z,86.90
2018-12-19T14:06:34.787Z,87.15
2018-12-19T14:09:04.509Z,87.92
2018-12-19T14:11:33.181Z,87.18
2018-12-19T14:14:02.206Z,85.94
2018-12-19T14:16:32.487Z,85.21
2018-12-19T14:19:00.764Z,85.53
2018-12-19T14:21:29.033Z,86.03
2018-12-19T14:23:58.301Z,87.07
2018-12-19T14:26:27.576Z,83.61
2018-12-19T14:28:55.845Z,72.27
2018-12-19T14:31:24.124Z,69.42
2018-12-19T14:33:52.377Z,70.54
2018-12-19T14:36:20.669Z,75.42
2018-12-19T14:38:48.917Z,79.53
2018-12-19T14:41:17.622Z,81.86
2018-12-19T14:43:46.752Z,83.71
2018-12-19T14:46:15.056Z,86.22
2018-12-19T14:48:43.304Z,88.27
2018-12-19T14:51:12.158Z,89.13
2018-12-19T14:53:40.529Z,90.04
2018-12-19T14:56:08.813Z,91.29
2018-12-19T14:58:37.481Z,91.52
2018-12-19T15:01:05.996Z,92.24
2018-12-19T15:03:34.269Z,92.51
2018-12-19T15:06:03.083Z,92.35
2018-12-19T15:08:31.345Z,92.78
2018-12-19T15:10:59.633Z,93.75
2018-12-19T15:13:28.005Z,94.42
2018-12-19T15:16:03.498Z,93.62
2018-12-19T15:18:32.009Z,93.54
2018-12-19T15:21:00.309Z,94.39
2018-12-19T15:23:28.573Z,94.20
2018-12-19T15:25:56.952Z,94.77
2018-12-19T15:28:25.237Z,94.96
2018-12-19T15:30:53.919Z,95.56
2018-12-19T15:33:22.285Z,95.35
2018-12-19T15:35:50.569Z,95.07
2018-12-19T15:38:18.852Z,94.53
2018-12-19T15:40:47.134Z,94.87
2018-12-19T15:43:15.384Z,94.43
2018-12-19T15:45:44.246Z,94.50
2018-12-19T15:48:12.502Z,95.33
2018-12-19T15:50:40.769Z,96.36
2018-12-19T15:53:09.077Z,96.57
2018-12-19T15:55:37.785Z,96.63
2018-12-19T15:58:06.066Z,96.38
2018-12-19T16:00:34.661Z,97.47
2018-12-19T16:03:03.170Z,97.53
2018-12-19T16:05:31.448Z,97.75
2018-12-19T16:08:00.228Z,97.99
2018-12-19T16:10:28.487Z,97.65
2018-12-19T16:12:57.077Z,98.04
2018-12-19T16:15:25.353Z,98.16
2018-12-19T16:17:54.065Z,98.76
2018-12-19T16:20:22.373Z,99.05
2018-12-19T16:22:51.528Z,98.55
2018-12-19T16:25:19.789Z,98.75
2018-12-19T16:27:48.155Z,98.79
2018-12-19T16:30:16.502Z,98.20
2018-12-19T16:32:44.805Z,97.82
2018-12-19T16:35:13.185Z,97.63
2018-12-19T16:37:41.506Z,98.16
2018-12-19T16:40:09.778Z,97.45
2018-12-19T16:42:38.160Z,97.00
2018-12-19T16:45:07.689Z,97.35
2018-12-19T16:47:36.455Z,97.50
2018-12-19T16:50:06.464Z,97.27
2018-12-19T16:52:34.769Z,97.40
2018-12-19T16:55:03.820Z,97.33
2018-12-19T16:57:32.340Z,96.97
2018-12-19T17:00:01.094Z,96.65
2018-12-19T17:02:29.742Z,95.94
2018-12-19T17:04:58.258Z,95.94
2018-12-19T17:07:26.533Z,96.12
2018-12-19T17:09:55.226Z,95.93
2018-12-19T17:12:23.502Z,95.56
2018-12-19T17:14:52.177Z,95.73
2018-12-19T17:17:20.513Z,96.03
2018-12-19T17:19:49.145Z,95.66
2018-12-19T17:22:17.650Z,95.85
2018-12-19T17:24:46.032Z,95.49
2018-12-19T17:27:14.332Z,95.61
2018-12-19T17:29:43.224Z,96.19
2018-12-19T17:32:11.690Z,95.14
2018-12-19T17:34:40.125Z,95.66
2018-12-19T17:37:08.390Z,95.27
2018-12-19T17:39:37.041Z,95.65
2018-12-19T17:42:05.487Z,95.70
2018-12-19T17:44:33.990Z,95.72
2018-12-19T17:47:02.438Z,95.78
2018-12-19T17:49:30.958Z,96.03
2018-12-19T17:51:59.538Z,96.52
2018-12-19T17:54:27.924Z,96.31
2018-12-19T17:56:56.373Z,96.93
2018-12-19T17:59:24.908Z,97.45
2018-12-19T18:01:53.349Z,97.22
2018-12-19T18:04:21.834Z,97.54
2018-12-19T18:06:50.292Z,96.80
2018-12-19T18:09:18.613Z,97.78
2018-12-19T18:11:46.887Z,97.82
2018-12-19T18:14:15.256Z,97.38
2018-12-19T18:16:43.726Z,97.10
2018-12-19T18:19:12.090Z,97.78
2018-12-19T18:21:41.790Z,97.51
2018-12-19T18:24:10.205Z,97.31
2018-12-19T18:26:38.468Z,97.06
2018-12-19T18:29:06.757Z,96.74
2018-12-19T18:31:35.135Z,97.18
2018-12-19T18:34:03.632Z,98.10
2018-12-19T18:36:32.177Z,97.82
2018-12-19T18:39:00.662Z,98.34
2018-12-19T18:41:29.054Z,98.32
2018-12-19T18:43:57.334Z,98.23
2018-12-19T18:46:25.693Z,98.12
2018-12-19T18:48:54.009Z,98.40
2018-12-19T18:51:22.481Z,98.64
2018-12-19T18:53:50.769Z,98.25
2018-12-19T18:56:19.434Z,98.29
2018-12-19T18:58:47.827Z,98.46
2018-12-19T19:01:16.418Z,97.50
2018-12-19T19:03:44.827Z,97.56
2018-12-19T19:06:13.800Z,97.49
2018-12-19T19:08:42.383Z,96.82
2018-12-19T19:11:10.853Z,96.47
2018-12-19T19:13:39.127Z,96.40
2018-12-19T19:16:07.830Z,96.41
2018-12-19T19:18:36.369Z,96.62
2018-12-19T19:21:04.672Z,96.55
2018-12-19T19:23:33.055Z,96.15
2018-12-19T19:26:01.435Z,96.33
2018-12-19T19:28:29.685Z,96.17
2018-12-19T19:30:57.957Z,96.66
2018-12-19T19:33:31.371Z,96.71
2018-12-19T19:35:59.761Z,96.96
2018-12-19T19:38:28.038Z,97.37
2018-12-19T19:40:56.738Z,97.39
2018-12-19T19:43:26.603Z,97.39
2018-12-19T19:45:55.659Z,97.94
2018-12-19T19:51:01.507Z,97.97
2018-12-19T19:53:29.777Z,97.96
2018-12-19T19:55:58.386Z,97.67
2018-12-19T19:58:26.657Z,97.51
2018-12-19T20:00:54.965Z,97.78
2018-12-19T20:03:23.297Z,97.78
2018-12-19T20:05:51.797Z,98.46
2018-12-19T20:08:20.249Z,98.10
2018-12-19T20:10:48.753Z,98.02
2018-12-19T20:13:17.033Z,98.18
2018-12-19T20:15:45.349Z,97.39
2018-12-19T20:18:14.698Z,97.76
2018-12-19T20:20:43.018Z,97.97
2018-12-19T20:23:11.293Z,98.15
2018-12-19T20:25:39.569Z,97.33
2018-12-19T20:28:07.974Z,97.45
2018-12-19T20:30:36.240Z,97.54
2018-12-19T20:33:04.537Z,98.05
2018-12-19T20:35:33.031Z,97.92
2018-12-19T20:38:01.321Z,97.78
2018-12-19T20:40:29.586Z,97.70
2018-12-19T20:42:57.865Z,98.00
2018-12-19T20:45:26.130Z,97.57
2018-12-19T20:47:54.417Z,97.84
2018-12-19T20:50:22.938Z,98.02
2018-12-19T20:52:51.222Z,97.87
2018-12-19T20:55:19.873Z,97.85
2018-12-19T20:57:48.430Z,98.49
2018-12-19T21:00:16.729Z,98.52
2018-12-19T21:02:45.345Z,98.74
2018-12-19T21:05:13.789Z,98.70
2018-12-19T21:07:42.316Z,98.75
2018-12-19T21:10:10.886Z,98.28
2018-12-19T21:12:39.814Z,98.31
2018-12-19T21:15:08.837Z,97.94
2018-12-19T21:17:42.567Z,98.87
2018-12-19T21:20:10.982Z,98.50
2018-12-19T21:22:39.334Z,98.59
2018-12-19T21:25:08.904Z,99.00
2018-12-19T21:27:37.342Z,99.02
2018-12-19T21:30:07.554Z,98.94
2018-12-19T21:32:36.342Z,98.34
2018-12-19T21:35:04.862Z,98.85
2018-12-19T21:37:33.169Z,99.74
2018-12-19T21:40:01.466Z,99.22
2018-12-19T21:42:30.275Z,99.32
2018-12-19T21:44:58.741Z,99.47
2018-12-19T21:47:27.066Z,99.15
2018-12-19T21:49:55.693Z,98.83
2018-12-19T21:52:24.176Z,99.06
2018-12-19T21:54:52.488Z,99.58
2018-12-19T21:57:20.782Z,98.91
2018-12-19T21:59:49.122Z,99.31
2018-12-19T22:02:17.430Z,99.07
2018-12-19T22:04:46.097Z,99.57
2018-12-19T22:07:14.914Z,99.15
2018-12-19T22:09:44.085Z,98.85
2018-12-19T22:12:12.610Z,99.08
2018-12-19T22:14:40.965Z,99.42
2018-12-19T22:19:15.816Z,99.38
2018-12-19T22:21:44.442Z,99.07
2018-12-19T22:24:12.961Z,98.66
2018-12-19T22:26:41.416Z,99.05
2018-12-19T22:29:09.921Z,99.01
2018-12-19T22:31:38.427Z,99.13
2018-12-19T22:34:06.910Z,99.37
2018-12-19T22:36:35.335Z,99.77
2018-12-19T22:39:06.434Z,100.00
2018-12-19T22:41:34.865Z,100.00
2018-12-19T22:44:07.841Z,99.76
2018-12-19T22:46:33.704Z,99.39
2018-12-19T22:49:02.175Z,99.95
2018-12-19T22:51:30.881Z,100.00
2018-12-19T22:53:59.178Z,99.41
2018-12-19T22:56:27.805Z,99.91
2018-12-19T22:58:56.367Z,99.53
2018-12-19T23:01:30.385Z,99.32
2018-12-19T23:04:04.335Z,99.00
2018-12-19T23:06:33.133Z,98.80
2018-12-19T23:09:01.496Z,98.70
2018-12-19T23:11:29.821Z,98.47
2018-12-19T23:13:58.438Z,99.03
2018-12-19T23:16:26.952Z,98.36
2018-12-19T23:18:55.439Z,98.25
2018-12-19T23:21:23.942Z,98.34
2018-12-19T23:23:52.254Z,97.97
2018-12-19T23:26:20.873Z,98.25
2018-12-19T23:28:51.339Z,98.27
2018-12-19T23:31:19.943Z,97.81
2018-12-19T23:33:48.813Z,97.34
2018-12-19T23:36:17.373Z,97.55
2018-12-19T23:38:45.821Z,96.75
2018-12-19T23:41:14.536Z,97.27
2018-12-19T23:43:43.054Z,97.46
2018-12-19T23:46:11.919Z,97.80
2018-12-19T23:48:41.340Z,98.88
2018-12-19T23:51:09.729Z,98.65
2018-12-19T23:53:38.246Z,99.46
2018-12-19T23:56:06.753Z,99.69
2018-12-19T23:58:35.209Z,100.00
